Gildeskaal — LLDI — position and weather

sailwx.info

Track history (hours):
 
Tides and Currents Weather Stations Pressure Air Temp Water Temp Dewpoint Dewpoint Depression Visibility Wind Speed Wind Dir Waves Ship Positions

Gildeskaal

Last reported at 2017-Jun-26 17:30 UTC. Time now 2017-Jun-26 17:36 UTC.
Position N 67°07' E 013°59'.

Length 52 m; draft 3.2 m.

Type: Ship. MMSI: 259680000.

Date/timePositionNaut miles runAvg speedWind from/ knotsBaromVisibWave heightAir tempDewpointWater temp
2017-Jun-26 17:30N 67°07' E 013°59'3 6.5
2017-Jun-26 17:00N 67°04' E 014°04'2 3.9
2017-Jun-26 16:30N 67°05' E 013°60'3 5.7
2017-Jun-26 16:00N 67°08' E 013°59'0 0.0
2017-Jun-26 15:30N 67°08' E 013°59'0 0.1
2017-Jun-26 15:00N 67°08' E 013°59'3 6.6
2017-Jun-26 14:30N 67°05' E 014°02'1 1.1
2017-Jun-26 13:30N 67°04' E 014°04'3 5.1
2017-Jun-26 13:00N 67°06' E 013°59'1 2.4
2017-Jun-26 12:30N 67°07' E 013°59'1 0.2
2017-Jun-26 09:29N 67°06' E 013°59'2 2.6
2017-Jun-26 08:49N 67°08' E 013°59'0 0.0
2017-Jun-26 08:28N 67°08' E 013°59'0 0.0
2017-Jun-26 08:00N 67°08' E 013°59'2 4.3
2017-Jun-26 07:30N 67°06' E 013°59'3 5.3
2017-Jun-26 07:00N 67°04' E 014°04'0 0.0
2017-Jun-26 06:30N 67°04' E 014°04'0 0.0
2017-Jun-26 06:00N 67°04' E 014°04'1 1.9
2017-Jun-26 05:30N 67°05' E 014°02'3 6.9
2017-Jun-26 05:00N 67°08' E 013°59'0 0.0
2017-Jun-26 04:29N 67°08' E 013°59'0 0.0
2017-Jun-26 03:59N 67°08' E 013°59'0 0.0
2017-Jun-26 03:30N 67°08' E 013°59'0 0.0
2017-Jun-26 03:00N 67°08' E 013°59'0 0.0
2017-Jun-26 02:30N 67°08' E 013°59'0 0.0
2017-Jun-26 02:00N 67°08' E 013°59'0 0.0
2017-Jun-26 01:30N 67°08' E 013°59'0 0.0
2017-Jun-26 01:00N 67°08' E 013°59'0 0.0
2017-Jun-26 00:30N 67°08' E 013°59'0 0.0
2017-Jun-26 00:00N 67°08' E 013°59'0 0.0
2017-Jun-25 23:30N 67°08' E 013°59'0 0.0
2017-Jun-25 23:00N 67°08' E 013°59'0 0.0
2017-Jun-25 22:30N 67°08' E 013°59'0 0.0
2017-Jun-25 22:00N 67°08' E 013°59'0 0.0
2017-Jun-25 21:30N 67°08' E 013°59'0 0.0
2017-Jun-25 21:00N 67°08' E 013°59'0 0.0
2017-Jun-25 20:30N 67°08' E 013°59'0 0.0
2017-Jun-25 20:00N 67°08' E 013°59'0 0.0
2017-Jun-25 19:30N 67°08' E 013°59'2 3.6
2017-Jun-25 19:00N 67°06' E 013°59'3 5.9
2017-Jun-25 18:30N 67°04' E 014°04'0 0.0
2017-Jun-25 18:00N 67°04' E 014°04'1 2.3
2017-Jun-25 17:30N 67°05' E 014°03'3 5.6
2017-Jun-25 17:00N 67°08' E 013°59'1 1.7
2017-Jun-25 16:30N 67°07' E 013°59'3 6.5
2017-Jun-25 16:00N 67°04' E 014°04'0 0.3
2017-Jun-25 15:30N 67°05' E 014°04'3 5.4
2017-Jun-25 15:01N 67°06' E 013°58'2 2.1
2017-Jun-25 14:00N 67°08' E 013°59'2 3.7
2017-Jun-25 13:30N 67°06' E 013°59'3 5.7
2017-Jun-25 13:00N 67°04' E 014°04'0 0.0
2017-Jun-25 12:30N 67°04' E 014°04'0 0.0
2017-Jun-25 12:00N 67°04' E 014°04'0 0.0
2017-Jun-25 11:30N 67°04' E 014°04'0 0.0
2017-Jun-25 11:00N 67°04' E 014°04'0 0.0
2017-Jun-25 10:30N 67°04' E 014°04'0 0.0
2017-Jun-25 10:00N 67°04' E 014°04'0 0.0
2017-Jun-25 09:30N 67°04' E 014°04'0 0.0
2017-Jun-25 09:00N 67°04' E 014°04'1 2.0
2017-Jun-25 08:29N 67°05' E 014°03'3 5.1
2017-Jun-25 08:00N 67°07' E 013°59'0 0.7
2017-Jun-25 07:30N 67°07' E 013°59'3 6.4
2017-Jun-25 07:00N 67°04' E 014°04'0 0.0
2017-Jun-25 06:30N 67°04' E 014°04'0 0.0
2017-Jun-25 06:00N 67°04' E 014°04'0 0.0
2017-Jun-25 05:30N 67°04' E 014°04'0 0.0
2017-Jun-25 05:00N 67°04' E 014°04'0 0.0
2017-Jun-25 04:30N 67°04' E 014°04'0 0.0
2017-Jun-25 04:00N 67°04' E 014°04'0 0.0
2017-Jun-25 03:30N 67°04' E 014°04'0 0.0
2017-Jun-25 03:00N 67°04' E 014°04'0 0.0
2017-Jun-25 02:30N 67°04' E 014°04'0 0.0
2017-Jun-25 02:00N 67°04' E 014°04'0 0.0
2017-Jun-25 01:30N 67°04' E 014°04'0 0.0
2017-Jun-25 00:59N 67°04' E 014°04'0 0.0
2017-Jun-25 00:30N 67°04' E 014°04'0 0.0
2017-Jun-25 00:00N 67°04' E 014°04'0 0.0
2017-Jun-24 23:30N 67°04' E 014°04'0 0.0
2017-Jun-24 23:00N 67°04' E 014°04'0 0.0
2017-Jun-24 22:30N 67°04' E 014°04'0 0.0
2017-Jun-24 22:00N 67°04' E 014°04'0 0.0
2017-Jun-24 21:30N 67°04' E 014°04'0 0.0
2017-Jun-24 21:00N 67°04' E 014°04'0 0.0
2017-Jun-24 20:30N 67°04' E 014°04'0 0.0
2017-Jun-24 20:00N 67°04' E 014°04'0 0.0
2017-Jun-24 19:30N 67°04' E 014°04'0 0.0
2017-Jun-24 19:00N 67°04' E 014°04'0 0.0
2017-Jun-24 18:30N 67°04' E 014°04'0 0.0
2017-Jun-24 18:00N 67°04' E 014°04'0 0.7
2017-Jun-24 17:30N 67°05' E 014°04'3 5.9
2017-Jun-24 17:00N 67°07' E 013°59'1 2.0
2017-Jun-24 16:29N 67°06' E 013°59'2 4.8
2017-Jun-24 16:00N 67°04' E 014°04'2 4.2
2017-Jun-24 15:30N 67°05' E 013°59'3 5.0
2017-Jun-24 15:01N 67°08' E 013°58'4 4.1
2017-Jun-24 14:00N 67°04' E 014°04'0 0.0
2017-Jun-24 13:30N 67°04' E 014°04'0 0.0
2017-Jun-24 13:00N 67°04' E 014°04'0 0.0
2017-Jun-24 12:30N 67°04' E 014°04'0 0.0
2017-Jun-24 12:00N 67°04' E 014°04'0 0.0
2017-Jun-24 11:30N 67°04' E 014°04'0 0.0
2017-Jun-24 11:00N 67°04' E 014°04'0 0.0
2017-Jun-24 10:30N 67°04' E 014°04'0 0.2
2017-Jun-24 10:00N 67°04' E 014°04'3 5.5
2017-Jun-24 09:31N 67°06' E 013°58'2 4.1
2017-Jun-24 09:00N 67°08' E 013°59'0 0.0
2017-Jun-24 08:30N 67°08' E 013°59'0 0.0
2017-Jun-24 08:00N 67°08' E 013°59'2 3.4
2017-Jun-24 07:30N 67°06' E 013°59'3 6.0
2017-Jun-24 07:00N 67°04' E 014°04'1 2.0
2017-Jun-24 06:30N 67°05' E 014°02'3 6.7
2017-Jun-24 06:00N 67°08' E 013°59'0 0.0
2017-Jun-24 05:30N 67°08' E 013°59'0 0.0
2017-Jun-24 05:00N 67°08' E 013°59'0 0.0
2017-Jun-24 04:30N 67°08' E 013°59'0 0.0
2017-Jun-24 04:00N 67°08' E 013°59'0 0.0
2017-Jun-24 03:30N 67°08' E 013°59'0 0.0
2017-Jun-24 03:00N 67°08' E 013°59'0 0.0
2017-Jun-24 02:30N 67°08' E 013°59'0 0.0
2017-Jun-24 02:00N 67°08' E 013°59'0 0.0
2017-Jun-24 01:30N 67°08' E 013°59'0 0.0
2017-Jun-24 01:00N 67°08' E 013°59'0 0.0
2017-Jun-24 00:30N 67°08' E 013°59'0 0.0
2017-Jun-24 00:00N 67°08' E 013°59'0 0.0
2017-Jun-23 23:30N 67°08' E 013°59'0 0.0
2017-Jun-23 23:00N 67°08' E 013°59'0 0.0
2017-Jun-23 22:30N 67°08' E 013°59'0 0.0
2017-Jun-23 22:00N 67°08' E 013°59'0 0.0
2017-Jun-23 21:30N 67°08' E 013°59'0 0.0
2017-Jun-23 21:00N 67°08' E 013°59'0 0.0
2017-Jun-23 20:30N 67°08' E 013°59'0 0.0
2017-Jun-23 20:00N 67°08' E 013°59'0 0.0
2017-Jun-23 19:30N 67°08' E 013°59'3 6.5
2017-Jun-23 18:59N 67°05' E 014°02'1 1.1
2017-Jun-23 18:30N 67°05' E 014°03'3 5.2
2017-Jun-23 18:00N 67°07' E 013°59'1 2.4
2017-Jun-23 17:30N 67°06' E 013°59'3 5.5
2017-Jun-23 17:00N 67°04' E 014°04'0 0.0
2017-Jun-23 16:30N 67°04' E 014°04'0 0.0
2017-Jun-23 16:00N 67°04' E 014°04'2 4.4
2017-Jun-23 15:30N 67°06' E 013°59'3 5.4
2017-Jun-23 15:00N 67°08' E 013°59'3 6.7
2017-Jun-23 14:30N 67°05' E 014°02'0 0.4
2017-Jun-23 13:30N 67°05' E 014°03'3 6.6
2017-Jun-23 13:00N 67°08' E 013°59'0 0.0
2017-Jun-23 12:30N 67°08' E 013°59'0 0.0
2017-Jun-23 12:00N 67°08' E 013°59'0 0.0
2017-Jun-23 11:30N 67°08' E 013°59'0 0.0
2017-Jun-23 11:00N 67°08' E 013°59'3 6.8
2017-Jun-23 10:30N 67°05' E 014°02'1 2.0
2017-Jun-23 10:00N 67°04' E 014°04'3 5.7
2017-Jun-23 09:30N 67°06' E 013°58'2 4.2
2017-Jun-23 09:00N 67°08' E 013°59'0 0.0
2017-Jun-23 08:30N 67°08' E 013°59'0 0.0
2017-Jun-23 08:00N 67°08' E 013°59'2 3.8
2017-Jun-23 07:30N 67°06' E 013°59'3 5.6
2017-Jun-23 07:00N 67°04' E 014°04'0 0.0
2017-Jun-23 06:30N 67°04' E 014°04'0 0.0
2017-Jun-23 06:00N 67°04' E 014°04'1 2.0
2017-Jun-23 05:30N 67°05' E 014°02'3 7.0
2017-Jun-23 05:00N 67°08' E 013°59'0 0.0
2017-Jun-23 04:30N 67°08' E 013°59'0 0.0
2017-Jun-23 04:00N 67°08' E 013°59'0 0.0
2017-Jun-23 03:30N 67°08' E 013°59'0 0.0
2017-Jun-23 03:00N 67°08' E 013°59'0 0.0
2017-Jun-23 02:30N 67°08' E 013°59'0 0.0
2017-Jun-23 02:00N 67°08' E 013°59'0 0.0
2017-Jun-23 01:30N 67°08' E 013°59'0 0.0
2017-Jun-23 01:00N 67°08' E 013°59'0 0.0
2017-Jun-23 00:30N 67°08' E 013°59'0 0.0
2017-Jun-23 00:00N 67°08' E 013°59'0 0.0
2017-Jun-22 23:30N 67°08' E 013°59'0 0.0
2017-Jun-22 23:00N 67°08' E 013°59'0 0.0
2017-Jun-22 22:30N 67°08' E 013°59'0 0.0
2017-Jun-22 22:00N 67°08' E 013°59'0 0.0
2017-Jun-22 21:30N 67°08' E 013°59'0 0.0
2017-Jun-22 21:00N 67°08' E 013°59'0 0.0
2017-Jun-22 20:30N 67°08' E 013°59'0 0.0
2017-Jun-22 20:00N 67°08' E 013°59'0 0.0
2017-Jun-22 19:31N 67°08' E 013°59'3 6.6
2017-Jun-22 19:00N 67°05' E 014°02'0 0.5
2017-Jun-22 18:30N 67°05' E 014°02'3 7.1
2017-Jun-22 18:00N 67°08' E 013°59'3 5.8
2017-Jun-22 17:30N 67°05' E 014°00'2 3.5
2017-Jun-22 17:00N 67°04' E 014°04'3 5.4
2017-Jun-22 16:30N 67°06' E 013°58'2 4.5
2017-Jun-22 16:00N 67°08' E 013°59'0 0.0
2017-Jun-22 15:30N 67°08' E 013°59'0 0.1
2017-Jun-22 15:00N 67°08' E 013°59'3 6.4
2017-Jun-22 14:29N 67°05' E 014°03'0 0.3
2017-Jun-22 13:30N 67°05' E 014°03'4 7.1
2017-Jun-22 13:00N 67°08' E 013°59'0 0.0
2017-Jun-22 12:30N 67°08' E 013°59'0 0.0
2017-Jun-22 12:00N 67°08' E 013°59'0 0.0
2017-Jun-22 11:30N 67°08' E 013°59'0 0.0
2017-Jun-22 11:00N 67°08' E 013°59'3 5.9
2017-Jun-22 10:29N 67°05' E 014°00'1 3.0
2017-Jun-22 10:00N 67°05' E 014°04'3 5.3
2017-Jun-22 09:30N 67°06' E 013°58'2 3.8
2017-Jun-22 09:00N 67°08' E 013°59'0 0.0
2017-Jun-22 08:30N 67°08' E 013°59'0 0.0
2017-Jun-22 08:00N 67°08' E 013°59'2 4.1
2017-Jun-22 07:30N 67°06' E 013°59'3 5.5
2017-Jun-22 07:00N 67°04' E 014°04'0 0.0
2017-Jun-22 06:30N 67°04' E 014°04'0 0.0
2017-Jun-22 05:59N 67°04' E 014°04'1 1.9
2017-Jun-22 05:30N 67°05' E 014°02'3 7.1
2017-Jun-22 05:00N 67°08' E 013°59'0 0.0
2017-Jun-22 04:30N 67°08' E 013°59'0 0.0
2017-Jun-22 04:00N 67°08' E 013°59'0 0.0
2017-Jun-22 03:30N 67°08' E 013°59'0 0.0
2017-Jun-22 03:00N 67°08' E 013°59'0 0.0
2017-Jun-22 02:30N 67°08' E 013°59'0 0.0
2017-Jun-22 02:00N 67°08' E 013°59'0 0.0
2017-Jun-22 01:30N 67°08' E 013°59'0 0.0
2017-Jun-22 01:00N 67°08' E 013°59'0 0.0
2017-Jun-22 00:30N 67°08' E 013°59'0 0.0
2017-Jun-22 00:00N 67°08' E 013°59'0 0.0
2017-Jun-21 23:30N 67°08' E 013°59'0 0.0
2017-Jun-21 23:00N 67°08' E 013°59'0 0.0
2017-Jun-21 22:30N 67°08' E 013°59'0 0.0
2017-Jun-21 22:00N 67°08' E 013°59'0 0.0
2017-Jun-21 21:30N 67°08' E 013°59'0 0.0
2017-Jun-21 21:00N 67°08' E 013°59'0 0.0
2017-Jun-21 20:30N 67°08' E 013°59'0 0.0
2017-Jun-21 20:00N 67°08' E 013°59'0 0.0
2017-Jun-21 19:30N 67°08' E 013°59'3 5.6
2017-Jun-21 19:00N 67°05' E 013°60'2 3.7
2017-Jun-21 18:30N 67°05' E 014°04'3 6.4
2017-Jun-21 18:00N 67°07' E 013°59'1 1.8
2017-Jun-21 17:30N 67°06' E 013°59'3 5.3
2017-Jun-21 17:00N 67°04' E 014°04'3 5.8
2017-Jun-21 16:30N 67°06' E 013°58'2 3.8
2017-Jun-21 16:00N 67°08' E 013°59'0 0.0
2017-Jun-21 15:30N 67°08' E 013°59'0 0.0
2017-Jun-21 15:00N 67°08' E 013°59'3 6.6
2017-Jun-21 14:30N 67°05' E 014°02'0 0.4
2017-Jun-21 13:28N 67°05' E 014°02'3 7.5
2017-Jun-21 13:00N 67°08' E 013°59'0 0.0
2017-Jun-21 12:30N 67°08' E 013°59'0 0.0
2017-Jun-21 12:00N 67°08' E 013°59'0 0.0
2017-Jun-21 11:30N 67°08' E 013°59'0 0.0
2017-Jun-21 11:00N 67°08' E 013°59'3 5.8
2017-Jun-21 10:25N 67°05' E 014°02'1 0.7
2017-Jun-21 09:40N 67°05' E 014°00'1 8.5
2017-Jun-21 09:30N 67°07' E 014°00'2 3.4
2017-Jun-21 09:00N 67°08' E 013°59'0 0.0
2017-Jun-21 08:30N 67°08' E 013°59'0 0.0
2017-Jun-21 08:00N 67°08' E 013°59'2 4.2
2017-Jun-21 07:30N 67°06' E 013°59'2 1.4
2017-Jun-21 05:46N 67°05' E 014°04'1 2.6
2017-Jun-21 05:30N 67°05' E 014°02'3 7.0
2017-Jun-21 05:00N 67°08' E 013°59'0 0.0
2017-Jun-21 04:30N 67°08' E 013°59'0 0.0
2017-Jun-21 04:00N 67°08' E 013°59'0 0.0
2017-Jun-21 03:30N 67°08' E 013°59'0 0.0
2017-Jun-21 03:00N 67°08' E 013°59'0 0.0
2017-Jun-21 02:30N 67°08' E 013°59'0 0.0
2017-Jun-21 02:00N 67°08' E 013°59'0 0.0
2017-Jun-21 01:30N 67°08' E 013°59'0 0.0
2017-Jun-21 01:00N 67°08' E 013°59'0 0.0
2017-Jun-21 00:30N 67°08' E 013°59'0 0.0
2017-Jun-21 00:00N 67°08' E 013°59'0 0.0
2017-Jun-20 23:30N 67°08' E 013°59'0 0.0
2017-Jun-20 23:00N 67°08' E 013°59'0 0.0
2017-Jun-20 22:30N 67°08' E 013°59'0 0.0
2017-Jun-20 22:00N 67°08' E 013°59'0 0.0
2017-Jun-20 21:30N 67°08' E 013°59'0 0.0
2017-Jun-20 21:00N 67°08' E 013°59'0 0.0
2017-Jun-20 20:30N 67°08' E 013°59'0 0.0
2017-Jun-20 20:00N 67°08' E 013°59'0 0.0
2017-Jun-20 19:30N 67°08' E 013°59'3 6.3
2017-Jun-20 18:58N 67°05' E 014°01'1 1.9
2017-Jun-20 18:30N 67°05' E 014°04'3 5.7
2017-Jun-20 18:00N 67°07' E 013°59'1 1.2
2017-Jun-20 17:30N 67°06' E 013°59'3 4.9
2017-Jun-20 16:56N 67°04' E 014°04'2 5.4
2017-Jun-20 16:30N 67°06' E 013°59'3 5.4
2017-Jun-20 16:00N 67°08' E 013°59'0 0.0
2017-Jun-20 15:30N 67°08' E 013°59'0 0.0
2017-Jun-20 15:01N 67°08' E 013°59'3 5.3
2017-Jun-20 14:24N 67°05' E 014°03'1 0.7
2017-Jun-20 13:28N 67°05' E 014°02'3 7.6
2017-Jun-20 13:00N 67°08' E 013°59'0 0.0
2017-Jun-20 12:30N 67°08' E 013°59'0 0.0
2017-Jun-20 12:00N 67°08' E 013°59'0 0.0
2017-Jun-20 11:30N 67°08' E 013°59'0 0.0
2017-Jun-20 11:00N 67°08' E 013°59'3 6.0
2017-Jun-20 10:27N 67°05' E 014°01'1 2.9
2017-Jun-20 10:00N 67°04' E 014°04'3 5.6
2017-Jun-20 09:30N 67°06' E 013°58'2 4.2
2017-Jun-20 09:00N 67°08' E 013°59'0 0.0
2017-Jun-20 08:30N 67°08' E 013°59'0 0.0
2017-Jun-20 08:00N 67°08' E 013°59'2 4.5
2017-Jun-20 07:30N 67°06' E 013°59'3 1.6
2017-Jun-20 05:49N 67°04' E 014°04'1 3.1
2017-Jun-20 05:30N 67°05' E 014°02'3 6.9
2017-Jun-20 05:00N 67°08' E 013°59'0 0.0
2017-Jun-20 04:30N 67°08' E 013°59'0 0.0
2017-Jun-20 04:00N 67°08' E 013°59'0 0.0
2017-Jun-20 03:30N 67°08' E 013°59'0 0.0
2017-Jun-20 03:00N 67°08' E 013°59'0 0.0
2017-Jun-20 02:30N 67°08' E 013°59'0 0.0
2017-Jun-20 02:00N 67°08' E 013°59'0 0.0
2017-Jun-20 01:30N 67°08' E 013°59'0 0.0
2017-Jun-20 01:00N 67°08' E 013°59'0 0.0
2017-Jun-20 00:30N 67°08' E 013°59'0 0.0
2017-Jun-20 00:00N 67°08' E 013°59'0 0.0
2017-Jun-19 23:30N 67°08' E 013°59'0 0.0
2017-Jun-19 23:00N 67°08' E 013°59'0 0.0
2017-Jun-19 22:30N 67°08' E 013°59'0 0.0
2017-Jun-19 22:00N 67°08' E 013°59'0 0.0
2017-Jun-19 21:30N 67°08' E 013°59'0 0.0
2017-Jun-19 21:00N 67°08' E 013°59'0 0.0
2017-Jun-19 20:30N 67°08' E 013°59'0 0.0
2017-Jun-19 20:00N 67°08' E 013°59'0 0.0
2017-Jun-19 19:30N 67°08' E 013°59'2 4.9
2017-Jun-19 19:00N 67°06' E 013°59'2 2.6
2017-Jun-19 18:23N 67°05' E 014°03'2 5.8
2017-Jun-19 18:00N 67°07' E 013°59'1 1.1
2017-Jun-19 17:30N 67°06' E 013°59'2 2.7
2017-Jun-19 16:47N 67°05' E 014°03'2 6.0
2017-Jun-19 16:31N 67°06' E 013°59'3 5.3
2017-Jun-19 16:00N 67°08' E 013°59'0 0.0
2017-Jun-19 15:30N 67°08' E 013°59'0 0.0
2017-Jun-19 15:00N 67°08' E 013°59'4 2.5
2017-Jun-19 13:22N 67°05' E 014°04'2 5.3
2017-Jun-19 13:00N 67°05' E 013°59'3 5.1
2017-Jun-19 12:31N 67°08' E 013°58'3 6.0
2017-Jun-19 12:00N 67°05' E 014°03'1 2.3
2017-Jun-19 11:30N 67°04' E 014°04'0 0.0
2017-Jun-19 11:00N 67°04' E 014°04'0 0.0
2017-Jun-19 10:30N 67°04' E 014°04'1 1.0
2017-Jun-19 10:00N 67°05' E 014°04'2 4.8
2017-Jun-19 09:30N 67°06' E 013°59'2 4.1
2017-Jun-19 09:00N 67°08' E 013°59'0 0.0
2017-Jun-19 08:30N 67°08' E 013°59'0 0.0
2017-Jun-19 08:00N 67°08' E 013°59'2 4.2
2017-Jun-19 07:30N 67°06' E 013°59'3 5.3
2017-Jun-19 07:00N 67°04' E 014°04'0 0.0
2017-Jun-19 06:30N 67°04' E 014°04'0 0.0
2017-Jun-19 06:00N 67°04' E 014°04'1 2.0
2017-Jun-19 05:29N 67°05' E 014°02'3 6.9
2017-Jun-19 05:00N 67°08' E 013°59'0 0.0
2017-Jun-19 04:30N 67°08' E 013°59'0 0.0
2017-Jun-19 04:00N 67°08' E 013°59'0 0.0
2017-Jun-19 03:30N 67°08' E 013°59'0 0.0
2017-Jun-19 03:00N 67°08' E 013°59'0 0.0
2017-Jun-19 02:30N 67°08' E 013°59'0 0.0
2017-Jun-19 02:00N 67°08' E 013°59'0 0.0
2017-Jun-19 01:30N 67°08' E 013°59'0 0.0
2017-Jun-19 01:00N 67°08' E 013°59'0 0.0
2017-Jun-19 00:30N 67°08' E 013°59'0 0.0
2017-Jun-19 00:00N 67°08' E 013°59'0 0.0
2017-Jun-18 23:30N 67°08' E 013°59'0 0.0
2017-Jun-18 23:00N 67°08' E 013°59'0 0.0
2017-Jun-18 22:30N 67°08' E 013°59'0 0.0
2017-Jun-18 22:00N 67°08' E 013°59'0 0.0
2017-Jun-18 21:29N 67°08' E 013°59'0 0.0
2017-Jun-18 21:00N 67°08' E 013°59'0 0.0
2017-Jun-18 20:30N 67°08' E 013°59'0 0.0
2017-Jun-18 20:00N 67°08' E 013°59'0 0.0
2017-Jun-18 19:30N 67°08' E 013°59'2 4.0
2017-Jun-18 19:00N 67°06' E 013°59'3 5.7
2017-Jun-18 18:30N 67°04' E 014°04'0 0.0
2017-Jun-18 18:00N 67°04' E 014°04'1 2.3
2017-Jun-18 17:30N 67°05' E 014°03'3 5.5
2017-Jun-18 17:00N 67°08' E 013°59'2 3.1
2017-Jun-18 16:29N 67°06' E 013°59'3 5.4
2017-Jun-18 16:00N 67°04' E 014°04'0 0.1
2017-Jun-18 15:30N 67°04' E 014°04'3 5.8
2017-Jun-18 15:00N 67°06' E 013°58'2 2.0
2017-Jun-18 14:00N 67°08' E 013°59'2 4.2
2017-Jun-18 13:30N 67°06' E 013°59'3 5.5
2017-Jun-18 13:00N 67°04' E 014°04'0 0.0
2017-Jun-18 12:30N 67°04' E 014°04'0 0.0
2017-Jun-18 11:59N 67°04' E 014°04'0 0.0
2017-Jun-18 11:30N 67°04' E 014°04'0 0.0
2017-Jun-18 11:00N 67°04' E 014°04'0 0.0
2017-Jun-18 10:30N 67°04' E 014°04'0 0.0
2017-Jun-18 10:00N 67°04' E 014°04'0 0.0
2017-Jun-18 09:30N 67°04' E 014°04'0 0.0
2017-Jun-18 08:59N 67°04' E 014°04'1 1.8
2017-Jun-18 08:30N 67°05' E 014°03'2 4.9
2017-Jun-18 08:00N 67°07' E 013°59'0 0.9
2017-Jun-18 07:30N 67°06' E 013°59'3 5.6
2017-Jun-18 07:00N 67°04' E 014°04'0 0.0
2017-Jun-18 06:30N 67°04' E 014°04'0 0.0
2017-Jun-18 06:00N 67°04' E 014°04'0 0.0
2017-Jun-18 05:30N 67°04' E 014°04'0 0.0
2017-Jun-18 05:00N 67°04' E 014°04'0 0.0
2017-Jun-18 04:30N 67°04' E 014°04'0 0.0
2017-Jun-18 04:00N 67°04' E 014°04'0 0.0
2017-Jun-18 03:30N 67°04' E 014°04'0 0.0
2017-Jun-18 03:00N 67°04' E 014°04'0 0.0
2017-Jun-18 02:30N 67°04' E 014°04'0 0.0
2017-Jun-18 02:00N 67°04' E 014°04'0 0.0
2017-Jun-18 01:30N 67°04' E 014°04'0 0.0
2017-Jun-18 01:00N 67°04' E 014°04'0 0.0
2017-Jun-18 00:30N 67°04' E 014°04'0 0.0
2017-Jun-18 00:00N 67°04' E 014°04'0 0.0
2017-Jun-17 23:30N 67°04' E 014°04'0 0.0
2017-Jun-17 23:00N 67°04' E 014°04'0 0.0
2017-Jun-17 22:29N 67°04' E 014°04'0 0.0
2017-Jun-17 22:00N 67°04' E 014°04'0 0.0
2017-Jun-17 21:30N 67°04' E 014°04'0 0.0
2017-Jun-17 21:00N 67°04' E 014°04'0 0.0
2017-Jun-17 20:30N 67°04' E 014°04'0 0.0
2017-Jun-17 20:00N 67°04' E 014°04'0 0.0
2017-Jun-17 19:29N 67°04' E 014°04'0 0.0
2017-Jun-17 19:00N 67°04' E 014°04'0 0.0
2017-Jun-17 18:30N 67°04' E 014°04'0 0.0
2017-Jun-17 18:00N 67°04' E 014°04'1 1.0
2017-Jun-17 17:30N 67°05' E 014°04'3 5.7
2017-Jun-17 17:00N 67°07' E 013°59'1 1.2
2017-Jun-17 16:30N 67°06' E 013°59'3 5.5
2017-Jun-17 16:00N 67°04' E 014°04'2 4.1
2017-Jun-17 15:30N 67°05' E 013°59'3 5.6
2017-Jun-17 15:00N 67°08' E 013°59'4 4.3
2017-Jun-17 14:00N 67°04' E 014°04'0 0.0
2017-Jun-17 13:30N 67°04' E 014°04'0 0.0
2017-Jun-17 13:00N 67°04' E 014°04'0 0.0
2017-Jun-17 12:30N 67°04' E 014°04'0 0.0
2017-Jun-17 12:00N 67°04' E 014°04'0 0.0
2017-Jun-17 11:30N 67°04' E 014°04'0 0.0
2017-Jun-17 11:00N 67°04' E 014°04'0 0.0
2017-Jun-17 10:30N 67°04' E 014°04'0 0.4
2017-Jun-17 10:00N 67°05' E 014°04'3 5.6
2017-Jun-17 09:30N 67°06' E 013°59'2 3.8
2017-Jun-17 08:59N 67°08' E 013°59'0 0.0
2017-Jun-17 08:30N 67°08' E 013°59'0 0.0
2017-Jun-17 08:00N 67°08' E 013°59'2 3.8
2017-Jun-17 07:30N 67°06' E 013°59'3 5.5
2017-Jun-17 07:00N 67°04' E 014°04'1 2.1
2017-Jun-17 06:30N 67°05' E 014°02'3 6.8
2017-Jun-17 06:00N 67°08' E 013°59'0 0.0
2017-Jun-17 05:30N 67°08' E 013°59'0 0.0
2017-Jun-17 05:00N 67°08' E 013°59'0 0.0
2017-Jun-17 04:30N 67°08' E 013°59'0 0.0
2017-Jun-17 04:00N 67°08' E 013°59'0 0.0
2017-Jun-17 03:30N 67°08' E 013°59'0 0.0
2017-Jun-17 03:00N 67°08' E 013°59'0 0.0
2017-Jun-17 02:30N 67°08' E 013°59'0 0.0
2017-Jun-17 02:00N 67°08' E 013°59'0 0.0
2017-Jun-17 01:30N 67°08' E 013°59'0 0.0
2017-Jun-17 01:00N 67°08' E 013°59'0 0.0
2017-Jun-17 00:30N 67°08' E 013°59'0 0.0
2017-Jun-17 00:00N 67°08' E 013°59'0 0.0
2017-Jun-16 23:30N 67°08' E 013°59'0 0.0
2017-Jun-16 23:00N 67°08' E 013°59'0 0.0
2017-Jun-16 22:30N 67°08' E 013°59'0 0.0
2017-Jun-16 22:00N 67°08' E 013°59'0 0.0
2017-Jun-16 21:30N 67°08' E 013°59'0 0.0
2017-Jun-16 21:00N 67°08' E 013°59'0 0.0
2017-Jun-16 20:30N 67°08' E 013°59'0 0.0
2017-Jun-16 20:00N 67°08' E 013°59'1 1.0
2017-Jun-16 19:30N 67°08' E 013°59'3 5.6
2017-Jun-16 19:00N 67°05' E 014°03'1 1.3
2017-Jun-16 18:30N 67°05' E 014°02'3 6.8
2017-Jun-16 18:00N 67°08' E 013°59'3 6.8
2017-Jun-16 17:30N 67°05' E 014°02'  
Track history (hours):
 
Tides and Currents Weather Stations Pressure Air Temp Water Temp Dewpoint Dewpoint Depression Visibility Wind Speed Wind Dir Waves Ship Positions

Gildeskaal

Last reported at 2017-Jun-26 17:30 UTC. Time now 2017-Jun-26 17:36 UTC.
Position N 67°07' E 013°59'.

Length 52 m; draft 3.2 m.

Type: Ship. MMSI: 259680000.

Date/timePositionNaut miles runAvg speedWind from/ knotsBaromVisibWave heightAir tempDewpointWater temp
2017-Jun-26 17:30N 67°07' E 013°59'3 6.5
2017-Jun-26 17:00N 67°04' E 014°04'2 3.9
2017-Jun-26 16:30N 67°05' E 013°60'3 5.7
2017-Jun-26 16:00N 67°08' E 013°59'0 0.0
2017-Jun-26 15:30N 67°08' E 013°59'0 0.1
2017-Jun-26 15:00N 67°08' E 013°59'3 6.6
2017-Jun-26 14:30N 67°05' E 014°02'1 1.1
2017-Jun-26 13:30N 67°04' E 014°04'3 5.1
2017-Jun-26 13:00N 67°06' E 013°59'1 2.4
2017-Jun-26 12:30N 67°07' E 013°59'1 0.2
2017-Jun-26 09:29N 67°06' E 013°59'2 2.6
2017-Jun-26 08:49N 67°08' E 013°59'0 0.0
2017-Jun-26 08:28N 67°08' E 013°59'0 0.0
2017-Jun-26 08:00N 67°08' E 013°59'2 4.3
2017-Jun-26 07:30N 67°06' E 013°59'3 5.3
2017-Jun-26 07:00N 67°04' E 014°04'0 0.0
2017-Jun-26 06:30N 67°04' E 014°04'0 0.0
2017-Jun-26 06:00N 67°04' E 014°04'1 1.9
2017-Jun-26 05:30N 67°05' E 014°02'3 6.9
2017-Jun-26 05:00N 67°08' E 013°59'0 0.0
2017-Jun-26 04:29N 67°08' E 013°59'0 0.0
2017-Jun-26 03:59N 67°08' E 013°59'0 0.0
2017-Jun-26 03:30N 67°08' E 013°59'0 0.0
2017-Jun-26 03:00N 67°08' E 013°59'0 0.0
2017-Jun-26 02:30N 67°08' E 013°59'0 0.0
2017-Jun-26 02:00N 67°08' E 013°59'0 0.0
2017-Jun-26 01:30N 67°08' E 013°59'0 0.0
2017-Jun-26 01:00N 67°08' E 013°59'0 0.0
2017-Jun-26 00:30N 67°08' E 013°59'0 0.0
2017-Jun-26 00:00N 67°08' E 013°59'0 0.0
2017-Jun-25 23:30N 67°08' E 013°59'0 0.0
2017-Jun-25 23:00N 67°08' E 013°59'0 0.0
2017-Jun-25 22:30N 67°08' E 013°59'0 0.0
2017-Jun-25 22:00N 67°08' E 013°59'0 0.0
2017-Jun-25 21:30N 67°08' E 013°59'0 0.0
2017-Jun-25 21:00N 67°08' E 013°59'0 0.0
2017-Jun-25 20:30N 67°08' E 013°59'0 0.0
2017-Jun-25 20:00N 67°08' E 013°59'0 0.0
2017-Jun-25 19:30N 67°08' E 013°59'2 3.6
2017-Jun-25 19:00N 67°06' E 013°59'3 5.9
2017-Jun-25 18:30N 67°04' E 014°04'0 0.0
2017-Jun-25 18:00N 67°04' E 014°04'1 2.3
2017-Jun-25 17:30N 67°05' E 014°03'3 5.6
2017-Jun-25 17:00N 67°08' E 013°59'1 1.7
2017-Jun-25 16:30N 67°07' E 013°59'3 6.5
2017-Jun-25 16:00N 67°04' E 014°04'0 0.3
2017-Jun-25 15:30N 67°05' E 014°04'3 5.4
2017-Jun-25 15:01N 67°06' E 013°58'2 2.1
2017-Jun-25 14:00N 67°08' E 013°59'2 3.7
2017-Jun-25 13:30N 67°06' E 013°59'3 5.7
2017-Jun-25 13:00N 67°04' E 014°04'0 0.0
2017-Jun-25 12:30N 67°04' E 014°04'0 0.0
2017-Jun-25 12:00N 67°04' E 014°04'0 0.0
2017-Jun-25 11:30N 67°04' E 014°04'0 0.0
2017-Jun-25 11:00N 67°04' E 014°04'0 0.0
2017-Jun-25 10:30N 67°04' E 014°04'0 0.0
2017-Jun-25 10:00N 67°04' E 014°04'0 0.0
2017-Jun-25 09:30N 67°04' E 014°04'0 0.0
2017-Jun-25 09:00N 67°04' E 014°04'1 2.0
2017-Jun-25 08:29N 67°05' E 014°03'3 5.1
2017-Jun-25 08:00N 67°07' E 013°59'0 0.7
2017-Jun-25 07:30N 67°07' E 013°59'3 6.4
2017-Jun-25 07:00N 67°04' E 014°04'0 0.0
2017-Jun-25 06:30N 67°04' E 014°04'0 0.0
2017-Jun-25 06:00N 67°04' E 014°04'0 0.0
2017-Jun-25 05:30N 67°04' E 014°04'0 0.0
2017-Jun-25 05:00N 67°04' E 014°04'0 0.0
2017-Jun-25 04:30N 67°04' E 014°04'0 0.0
2017-Jun-25 04:00N 67°04' E 014°04'0 0.0
2017-Jun-25 03:30N 67°04' E 014°04'0 0.0
2017-Jun-25 03:00N 67°04' E 014°04'0 0.0
2017-Jun-25 02:30N 67°04' E 014°04'0 0.0
2017-Jun-25 02:00N 67°04' E 014°04'0 0.0
2017-Jun-25 01:30N 67°04' E 014°04'0 0.0
2017-Jun-25 00:59N 67°04' E 014°04'0 0.0
2017-Jun-25 00:30N 67°04' E 014°04'0 0.0
2017-Jun-25 00:00N 67°04' E 014°04'0 0.0
2017-Jun-24 23:30N 67°04' E 014°04'0 0.0
2017-Jun-24 23:00N 67°04' E 014°04'0 0.0
2017-Jun-24 22:30N 67°04' E 014°04'0 0.0
2017-Jun-24 22:00N 67°04' E 014°04'0 0.0
2017-Jun-24 21:30N 67°04' E 014°04'0 0.0
2017-Jun-24 21:00N 67°04' E 014°04'0 0.0
2017-Jun-24 20:30N 67°04' E 014°04'0 0.0
2017-Jun-24 20:00N 67°04' E 014°04'0 0.0
2017-Jun-24 19:30N 67°04' E 014°04'0 0.0
2017-Jun-24 19:00N 67°04' E 014°04'0 0.0
2017-Jun-24 18:30N 67°04' E 014°04'0 0.0
2017-Jun-24 18:00N 67°04' E 014°04'0 0.7
2017-Jun-24 17:30N 67°05' E 014°04'3 5.9
2017-Jun-24 17:00N 67°07' E 013°59'1 2.0
2017-Jun-24 16:29N 67°06' E 013°59'2 4.8
2017-Jun-24 16:00N 67°04' E 014°04'2 4.2
2017-Jun-24 15:30N 67°05' E 013°59'3 5.0
2017-Jun-24 15:01N 67°08' E 013°58'4 4.1
2017-Jun-24 14:00N 67°04' E 014°04'0 0.0
2017-Jun-24 13:30N 67°04' E 014°04'0 0.0
2017-Jun-24 13:00N 67°04' E 014°04'0 0.0
2017-Jun-24 12:30N 67°04' E 014°04'0 0.0
2017-Jun-24 12:00N 67°04' E 014°04'0 0.0
2017-Jun-24 11:30N 67°04' E 014°04'0 0.0
2017-Jun-24 11:00N 67°04' E 014°04'0 0.0
2017-Jun-24 10:30N 67°04' E 014°04'0 0.2
2017-Jun-24 10:00N 67°04' E 014°04'3 5.5
2017-Jun-24 09:31N 67°06' E 013°58'2 4.1
2017-Jun-24 09:00N 67°08' E 013°59'0 0.0
2017-Jun-24 08:30N 67°08' E 013°59'0 0.0
2017-Jun-24 08:00N 67°08' E 013°59'2 3.4
2017-Jun-24 07:30N 67°06' E 013°59'3 6.0
2017-Jun-24 07:00N 67°04' E 014°04'1 2.0
2017-Jun-24 06:30N 67°05' E 014°02'3 6.7
2017-Jun-24 06:00N 67°08' E 013°59'0 0.0
2017-Jun-24 05:30N 67°08' E 013°59'0 0.0
2017-Jun-24 05:00N 67°08' E 013°59'0 0.0
2017-Jun-24 04:30N 67°08' E 013°59'0 0.0
2017-Jun-24 04:00N 67°08' E 013°59'0 0.0
2017-Jun-24 03:30N 67°08' E 013°59'0 0.0
2017-Jun-24 03:00N 67°08' E 013°59'0 0.0
2017-Jun-24 02:30N 67°08' E 013°59'0 0.0
2017-Jun-24 02:00N 67°08' E 013°59'0 0.0
2017-Jun-24 01:30N 67°08' E 013°59'0 0.0
2017-Jun-24 01:00N 67°08' E 013°59'0 0.0
2017-Jun-24 00:30N 67°08' E 013°59'0 0.0
2017-Jun-24 00:00N 67°08' E 013°59'0 0.0
2017-Jun-23 23:30N 67°08' E 013°59'0 0.0
2017-Jun-23 23:00N 67°08' E 013°59'0 0.0
2017-Jun-23 22:30N 67°08' E 013°59'0 0.0
2017-Jun-23 22:00N 67°08' E 013°59'0 0.0
2017-Jun-23 21:30N 67°08' E 013°59'0 0.0
2017-Jun-23 21:00N 67°08' E 013°59'0 0.0
2017-Jun-23 20:30N 67°08' E 013°59'0 0.0
2017-Jun-23 20:00N 67°08' E 013°59'0 0.0
2017-Jun-23 19:30N 67°08' E 013°59'3 6.5
2017-Jun-23 18:59N 67°05' E 014°02'1 1.1
2017-Jun-23 18:30N 67°05' E 014°03'3 5.2
2017-Jun-23 18:00N 67°07' E 013°59'1 2.4
2017-Jun-23 17:30N 67°06' E 013°59'3 5.5
2017-Jun-23 17:00N 67°04' E 014°04'0 0.0
2017-Jun-23 16:30N 67°04' E 014°04'0 0.0
2017-Jun-23 16:00N 67°04' E 014°04'2 4.4
2017-Jun-23 15:30N 67°06' E 013°59'3 5.4
2017-Jun-23 15:00N 67°08' E 013°59'3 6.7
2017-Jun-23 14:30N 67°05' E 014°02'0 0.4
2017-Jun-23 13:30N 67°05' E 014°03'3 6.6
2017-Jun-23 13:00N 67°08' E 013°59'0 0.0
2017-Jun-23 12:30N 67°08' E 013°59'0 0.0
2017-Jun-23 12:00N 67°08' E 013°59'0 0.0
2017-Jun-23 11:30N 67°08' E 013°59'0 0.0
2017-Jun-23 11:00N 67°08' E 013°59'3 6.8
2017-Jun-23 10:30N 67°05' E 014°02'1 2.0
2017-Jun-23 10:00N 67°04' E 014°04'3 5.7
2017-Jun-23 09:30N 67°06' E 013°58'2 4.2
2017-Jun-23 09:00N 67°08' E 013°59'0 0.0
2017-Jun-23 08:30N 67°08' E 013°59'0 0.0
2017-Jun-23 08:00N 67°08' E 013°59'2 3.8
2017-Jun-23 07:30N 67°06' E 013°59'3 5.6
2017-Jun-23 07:00N 67°04' E 014°04'0 0.0
2017-Jun-23 06:30N 67°04' E 014°04'0 0.0
2017-Jun-23 06:00N 67°04' E 014°04'1 2.0
2017-Jun-23 05:30N 67°05' E 014°02'3 7.0
2017-Jun-23 05:00N 67°08' E 013°59'0 0.0
2017-Jun-23 04:30N 67°08' E 013°59'0 0.0
2017-Jun-23 04:00N 67°08' E 013°59'0 0.0
2017-Jun-23 03:30N 67°08' E 013°59'0 0.0
2017-Jun-23 03:00N 67°08' E 013°59'0 0.0
2017-Jun-23 02:30N 67°08' E 013°59'0 0.0
2017-Jun-23 02:00N 67°08' E 013°59'0 0.0
2017-Jun-23 01:30N 67°08' E 013°59'0 0.0
2017-Jun-23 01:00N 67°08' E 013°59'0 0.0
2017-Jun-23 00:30N 67°08' E 013°59'0 0.0
2017-Jun-23 00:00N 67°08' E 013°59'0 0.0
2017-Jun-22 23:30N 67°08' E 013°59'0 0.0
2017-Jun-22 23:00N 67°08' E 013°59'0 0.0
2017-Jun-22 22:30N 67°08' E 013°59'0 0.0
2017-Jun-22 22:00N 67°08' E 013°59'0 0.0
2017-Jun-22 21:30N 67°08' E 013°59'0 0.0
2017-Jun-22 21:00N 67°08' E 013°59'0 0.0
2017-Jun-22 20:30N 67°08' E 013°59'0 0.0
2017-Jun-22 20:00N 67°08' E 013°59'0 0.0
2017-Jun-22 19:31N 67°08' E 013°59'3 6.6
2017-Jun-22 19:00N 67°05' E 014°02'0 0.5
2017-Jun-22 18:30N 67°05' E 014°02'3 7.1
2017-Jun-22 18:00N 67°08' E 013°59'3 5.8
2017-Jun-22 17:30N 67°05' E 014°00'2 3.5
2017-Jun-22 17:00N 67°04' E 014°04'3 5.4
2017-Jun-22 16:30N 67°06' E 013°58'2 4.5
2017-Jun-22 16:00N 67°08' E 013°59'0 0.0
2017-Jun-22 15:30N 67°08' E 013°59'0 0.1
2017-Jun-22 15:00N 67°08' E 013°59'3 6.4
2017-Jun-22 14:29N 67°05' E 014°03'0 0.3
2017-Jun-22 13:30N 67°05' E 014°03'4 7.1
2017-Jun-22 13:00N 67°08' E 013°59'0 0.0
2017-Jun-22 12:30N 67°08' E 013°59'0 0.0
2017-Jun-22 12:00N 67°08' E 013°59'0 0.0
2017-Jun-22 11:30N 67°08' E 013°59'0 0.0
2017-Jun-22 11:00N 67°08' E 013°59'3 5.9
2017-Jun-22 10:29N 67°05' E 014°00'1 3.0
2017-Jun-22 10:00N 67°05' E 014°04'3 5.3
2017-Jun-22 09:30N 67°06' E 013°58'2 3.8
2017-Jun-22 09:00N 67°08' E 013°59'0 0.0
2017-Jun-22 08:30N 67°08' E 013°59'0 0.0
2017-Jun-22 08:00N 67°08' E 013°59'2 4.1
2017-Jun-22 07:30N 67°06' E 013°59'3 5.5
2017-Jun-22 07:00N 67°04' E 014°04'0 0.0
2017-Jun-22 06:30N 67°04' E 014°04'0 0.0
2017-Jun-22 05:59N 67°04' E 014°04'1 1.9
2017-Jun-22 05:30N 67°05' E 014°02'3 7.1
2017-Jun-22 05:00N 67°08' E 013°59'0 0.0
2017-Jun-22 04:30N 67°08' E 013°59'0 0.0
2017-Jun-22 04:00N 67°08' E 013°59'0 0.0
2017-Jun-22 03:30N 67°08' E 013°59'0 0.0
2017-Jun-22 03:00N 67°08' E 013°59'0 0.0
2017-Jun-22 02:30N 67°08' E 013°59'0 0.0
2017-Jun-22 02:00N 67°08' E 013°59'0 0.0
2017-Jun-22 01:30N 67°08' E 013°59'0 0.0
2017-Jun-22 01:00N 67°08' E 013°59'0 0.0
2017-Jun-22 00:30N 67°08' E 013°59'0 0.0
2017-Jun-22 00:00N 67°08' E 013°59'0 0.0
2017-Jun-21 23:30N 67°08' E 013°59'0 0.0
2017-Jun-21 23:00N 67°08' E 013°59'0 0.0
2017-Jun-21 22:30N 67°08' E 013°59'0 0.0
2017-Jun-21 22:00N 67°08' E 013°59'0 0.0
2017-Jun-21 21:30N 67°08' E 013°59'0 0.0
2017-Jun-21 21:00N 67°08' E 013°59'0 0.0
2017-Jun-21 20:30N 67°08' E 013°59'0 0.0
2017-Jun-21 20:00N 67°08' E 013°59'0 0.0
2017-Jun-21 19:30N 67°08' E 013°59'3 5.6
2017-Jun-21 19:00N 67°05' E 013°60'2 3.7
2017-Jun-21 18:30N 67°05' E 014°04'3 6.4
2017-Jun-21 18:00N 67°07' E 013°59'1 1.8
2017-Jun-21 17:30N 67°06' E 013°59'3 5.3
2017-Jun-21 17:00N 67°04' E 014°04'3 5.8
2017-Jun-21 16:30N 67°06' E 013°58'2 3.8
2017-Jun-21 16:00N 67°08' E 013°59'0 0.0
2017-Jun-21 15:30N 67°08' E 013°59'0 0.0
2017-Jun-21 15:00N 67°08' E 013°59'3 6.6
2017-Jun-21 14:30N 67°05' E 014°02'0 0.4
2017-Jun-21 13:28N 67°05' E 014°02'3 7.5
2017-Jun-21 13:00N 67°08' E 013°59'0 0.0
2017-Jun-21 12:30N 67°08' E 013°59'0 0.0
2017-Jun-21 12:00N 67°08' E 013°59'0 0.0
2017-Jun-21 11:30N 67°08' E 013°59'0 0.0
2017-Jun-21 11:00N 67°08' E 013°59'3 5.8
2017-Jun-21 10:25N 67°05' E 014°02'1 0.7
2017-Jun-21 09:40N 67°05' E 014°00'1 8.5
2017-Jun-21 09:30N 67°07' E 014°00'2 3.4
2017-Jun-21 09:00N 67°08' E 013°59'0 0.0
2017-Jun-21 08:30N 67°08' E 013°59'0 0.0
2017-Jun-21 08:00N 67°08' E 013°59'2 4.2
2017-Jun-21 07:30N 67°06' E 013°59'2 1.4
2017-Jun-21 05:46N 67°05' E 014°04'1 2.6
2017-Jun-21 05:30N 67°05' E 014°02'3 7.0
2017-Jun-21 05:00N 67°08' E 013°59'0 0.0
2017-Jun-21 04:30N 67°08' E 013°59'0 0.0
2017-Jun-21 04:00N 67°08' E 013°59'0 0.0
2017-Jun-21 03:30N 67°08' E 013°59'0 0.0
2017-Jun-21 03:00N 67°08' E 013°59'0 0.0
2017-Jun-21 02:30N 67°08' E 013°59'0 0.0
2017-Jun-21 02:00N 67°08' E 013°59'0 0.0
2017-Jun-21 01:30N 67°08' E 013°59'0 0.0
2017-Jun-21 01:00N 67°08' E 013°59'0 0.0
2017-Jun-21 00:30N 67°08' E 013°59'0 0.0
2017-Jun-21 00:00N 67°08' E 013°59'0 0.0
2017-Jun-20 23:30N 67°08' E 013°59'0 0.0
2017-Jun-20 23:00N 67°08' E 013°59'0 0.0
2017-Jun-20 22:30N 67°08' E 013°59'0 0.0
2017-Jun-20 22:00N 67°08' E 013°59'0 0.0
2017-Jun-20 21:30N 67°08' E 013°59'0 0.0
2017-Jun-20 21:00N 67°08' E 013°59'0 0.0
2017-Jun-20 20:30N 67°08' E 013°59'0 0.0
2017-Jun-20 20:00N 67°08' E 013°59'0 0.0
2017-Jun-20 19:30N 67°08' E 013°59'3 6.3
2017-Jun-20 18:58N 67°05' E 014°01'1 1.9
2017-Jun-20 18:30N 67°05' E 014°04'3 5.7
2017-Jun-20 18:00N 67°07' E 013°59'1 1.2
2017-Jun-20 17:30N 67°06' E 013°59'3 4.9
2017-Jun-20 16:56N 67°04' E 014°04'2 5.4
2017-Jun-20 16:30N 67°06' E 013°59'3 5.4
2017-Jun-20 16:00N 67°08' E 013°59'0 0.0
2017-Jun-20 15:30N 67°08' E 013°59'0 0.0
2017-Jun-20 15:01N 67°08' E 013°59'3 5.3
2017-Jun-20 14:24N 67°05' E 014°03'1 0.7
2017-Jun-20 13:28N 67°05' E 014°02'3 7.6
2017-Jun-20 13:00N 67°08' E 013°59'0 0.0
2017-Jun-20 12:30N 67°08' E 013°59'0 0.0
2017-Jun-20 12:00N 67°08' E 013°59'0 0.0
2017-Jun-20 11:30N 67°08' E 013°59'0 0.0
2017-Jun-20 11:00N 67°08' E 013°59'3 6.0
2017-Jun-20 10:27N 67°05' E 014°01'1 2.9
2017-Jun-20 10:00N 67°04' E 014°04'3 5.6
2017-Jun-20 09:30N 67°06' E 013°58'2 4.2
2017-Jun-20 09:00N 67°08' E 013°59'0 0.0
2017-Jun-20 08:30N 67°08' E 013°59'0 0.0
2017-Jun-20 08:00N 67°08' E 013°59'2 4.5
2017-Jun-20 07:30N 67°06' E 013°59'3 1.6
2017-Jun-20 05:49N 67°04' E 014°04'1 3.1
2017-Jun-20 05:30N 67°05' E 014°02'3 6.9
2017-Jun-20 05:00N 67°08' E 013°59'0 0.0
2017-Jun-20 04:30N 67°08' E 013°59'0 0.0
2017-Jun-20 04:00N 67°08' E 013°59'0 0.0
2017-Jun-20 03:30N 67°08' E 013°59'0 0.0
2017-Jun-20 03:00N 67°08' E 013°59'0 0.0
2017-Jun-20 02:30N 67°08' E 013°59'0 0.0
2017-Jun-20 02:00N 67°08' E 013°59'0 0.0
2017-Jun-20 01:30N 67°08' E 013°59'0 0.0
2017-Jun-20 01:00N 67°08' E 013°59'0 0.0
2017-Jun-20 00:30N 67°08' E 013°59'0 0.0
2017-Jun-20 00:00N 67°08' E 013°59'0 0.0
2017-Jun-19 23:30N 67°08' E 013°59'0 0.0
2017-Jun-19 23:00N 67°08' E 013°59'0 0.0
2017-Jun-19 22:30N 67°08' E 013°59'0 0.0
2017-Jun-19 22:00N 67°08' E 013°59'0 0.0
2017-Jun-19 21:30N 67°08' E 013°59'0 0.0
2017-Jun-19 21:00N 67°08' E 013°59'0 0.0
2017-Jun-19 20:30N 67°08' E 013°59'0 0.0
2017-Jun-19 20:00N 67°08' E 013°59'0 0.0
2017-Jun-19 19:30N 67°08' E 013°59'2 4.9
2017-Jun-19 19:00N 67°06' E 013°59'2 2.6
2017-Jun-19 18:23N 67°05' E 014°03'2 5.8
2017-Jun-19 18:00N 67°07' E 013°59'1 1.1
2017-Jun-19 17:30N 67°06' E 013°59'2 2.7
2017-Jun-19 16:47N 67°05' E 014°03'2 6.0
2017-Jun-19 16:31N 67°06' E 013°59'3 5.3
2017-Jun-19 16:00N 67°08' E 013°59'0 0.0
2017-Jun-19 15:30N 67°08' E 013°59'0 0.0
2017-Jun-19 15:00N 67°08' E 013°59'4 2.5
2017-Jun-19 13:22N 67°05' E 014°04'2 5.3
2017-Jun-19 13:00N 67°05' E 013°59'3 5.1
2017-Jun-19 12:31N 67°08' E 013°58'3 6.0
2017-Jun-19 12:00N 67°05' E 014°03'1 2.3
2017-Jun-19 11:30N 67°04' E 014°04'0 0.0
2017-Jun-19 11:00N 67°04' E 014°04'0 0.0
2017-Jun-19 10:30N 67°04' E 014°04'1 1.0
2017-Jun-19 10:00N 67°05' E 014°04'2 4.8
2017-Jun-19 09:30N 67°06' E 013°59'2 4.1
2017-Jun-19 09:00N 67°08' E 013°59'0 0.0
2017-Jun-19 08:30N 67°08' E 013°59'0 0.0
2017-Jun-19 08:00N 67°08' E 013°59'2 4.2
2017-Jun-19 07:30N 67°06' E 013°59'3 5.3
2017-Jun-19 07:00N 67°04' E 014°04'0 0.0
2017-Jun-19 06:30N 67°04' E 014°04'0 0.0
2017-Jun-19 06:00N 67°04' E 014°04'1 2.0
2017-Jun-19 05:29N 67°05' E 014°02'3 6.9
2017-Jun-19 05:00N 67°08' E 013°59'0 0.0
2017-Jun-19 04:30N 67°08' E 013°59'0 0.0
2017-Jun-19 04:00N 67°08' E 013°59'0 0.0
2017-Jun-19 03:30N 67°08' E 013°59'0 0.0
2017-Jun-19 03:00N 67°08' E 013°59'0 0.0
2017-Jun-19 02:30N 67°08' E 013°59'0 0.0
2017-Jun-19 02:00N 67°08' E 013°59'0 0.0
2017-Jun-19 01:30N 67°08' E 013°59'0 0.0
2017-Jun-19 01:00N 67°08' E 013°59'0 0.0
2017-Jun-19 00:30N 67°08' E 013°59'0 0.0
2017-Jun-19 00:00N 67°08' E 013°59'0 0.0
2017-Jun-18 23:30N 67°08' E 013°59'0 0.0
2017-Jun-18 23:00N 67°08' E 013°59'0 0.0
2017-Jun-18 22:30N 67°08' E 013°59'0 0.0
2017-Jun-18 22:00N 67°08' E 013°59'0 0.0
2017-Jun-18 21:29N 67°08' E 013°59'0 0.0
2017-Jun-18 21:00N 67°08' E 013°59'0 0.0
2017-Jun-18 20:30N 67°08' E 013°59'0 0.0
2017-Jun-18 20:00N 67°08' E 013°59'0 0.0
2017-Jun-18 19:30N 67°08' E 013°59'2 4.0
2017-Jun-18 19:00N 67°06' E 013°59'3 5.7
2017-Jun-18 18:30N 67°04' E 014°04'0 0.0
2017-Jun-18 18:00N 67°04' E 014°04'1 2.3
2017-Jun-18 17:30N 67°05' E 014°03'3 5.5
2017-Jun-18 17:00N 67°08' E 013°59'2 3.1
2017-Jun-18 16:29N 67°06' E 013°59'3 5.4
2017-Jun-18 16:00N 67°04' E 014°04'0 0.1
2017-Jun-18 15:30N 67°04' E 014°04'3 5.8
2017-Jun-18 15:00N 67°06' E 013°58'2 2.0
2017-Jun-18 14:00N 67°08' E 013°59'2 4.2
2017-Jun-18 13:30N 67°06' E 013°59'3 5.5
2017-Jun-18 13:00N 67°04' E 014°04'0 0.0
2017-Jun-18 12:30N 67°04' E 014°04'0 0.0
2017-Jun-18 11:59N 67°04' E 014°04'0 0.0
2017-Jun-18 11:30N 67°04' E 014°04'0 0.0
2017-Jun-18 11:00N 67°04' E 014°04'0 0.0
2017-Jun-18 10:30N 67°04' E 014°04'0 0.0
2017-Jun-18 10:00N 67°04' E 014°04'0 0.0
2017-Jun-18 09:30N 67°04' E 014°04'0 0.0
2017-Jun-18 08:59N 67°04' E 014°04'1 1.8
2017-Jun-18 08:30N 67°05' E 014°03'2 4.9
2017-Jun-18 08:00N 67°07' E 013°59'0 0.9
2017-Jun-18 07:30N 67°06' E 013°59'3 5.6
2017-Jun-18 07:00N 67°04' E 014°04'0 0.0
2017-Jun-18 06:30N 67°04' E 014°04'0 0.0
2017-Jun-18 06:00N 67°04' E 014°04'0 0.0
2017-Jun-18 05:30N 67°04' E 014°04'0 0.0
2017-Jun-18 05:00N 67°04' E 014°04'0 0.0
2017-Jun-18 04:30N 67°04' E 014°04'0 0.0
2017-Jun-18 04:00N 67°04' E 014°04'0 0.0
2017-Jun-18 03:30N 67°04' E 014°04'0 0.0
2017-Jun-18 03:00N 67°04' E 014°04'0 0.0
2017-Jun-18 02:30N 67°04' E 014°04'0 0.0
2017-Jun-18 02:00N 67°04' E 014°04'0 0.0
2017-Jun-18 01:30N 67°04' E 014°04'0 0.0
2017-Jun-18 01:00N 67°04' E 014°04'0 0.0
2017-Jun-18 00:30N 67°04' E 014°04'0 0.0
2017-Jun-18 00:00N 67°04' E 014°04'0 0.0
2017-Jun-17 23:30N 67°04' E 014°04'0 0.0
2017-Jun-17 23:00N 67°04' E 014°04'0 0.0
2017-Jun-17 22:29N 67°04' E 014°04'0 0.0
2017-Jun-17 22:00N 67°04' E 014°04'0 0.0
2017-Jun-17 21:30N 67°04' E 014°04'0 0.0
2017-Jun-17 21:00N 67°04' E 014°04'0 0.0
2017-Jun-17 20:30N 67°04' E 014°04'0 0.0
2017-Jun-17 20:00N 67°04' E 014°04'0 0.0
2017-Jun-17 19:29N 67°04' E 014°04'0 0.0
2017-Jun-17 19:00N 67°04' E 014°04'0 0.0
2017-Jun-17 18:30N 67°04' E 014°04'0 0.0
2017-Jun-17 18:00N 67°04' E 014°04'1 1.0
2017-Jun-17 17:30N 67°05' E 014°04'3 5.7
2017-Jun-17 17:00N 67°07' E 013°59'1 1.2
2017-Jun-17 16:30N 67°06' E 013°59'3 5.5
2017-Jun-17 16:00N 67°04' E 014°04'2 4.1
2017-Jun-17 15:30N 67°05' E 013°59'3 5.6
2017-Jun-17 15:00N 67°08' E 013°59'4 4.3
2017-Jun-17 14:00N 67°04' E 014°04'0 0.0
2017-Jun-17 13:30N 67°04' E 014°04'0 0.0
2017-Jun-17 13:00N 67°04' E 014°04'0 0.0
2017-Jun-17 12:30N 67°04' E 014°04'0 0.0
2017-Jun-17 12:00N 67°04' E 014°04'0 0.0
2017-Jun-17 11:30N 67°04' E 014°04'0 0.0
2017-Jun-17 11:00N 67°04' E 014°04'0 0.0
2017-Jun-17 10:30N 67°04' E 014°04'0 0.4
2017-Jun-17 10:00N 67°05' E 014°04'3 5.6
2017-Jun-17 09:30N 67°06' E 013°59'2 3.8
2017-Jun-17 08:59N 67°08' E 013°59'0 0.0
2017-Jun-17 08:30N 67°08' E 013°59'0 0.0
2017-Jun-17 08:00N 67°08' E 013°59'2 3.8
2017-Jun-17 07:30N 67°06' E 013°59'3 5.5
2017-Jun-17 07:00N 67°04' E 014°04'1 2.1
2017-Jun-17 06:30N 67°05' E 014°02'3 6.8
2017-Jun-17 06:00N 67°08' E 013°59'0 0.0
2017-Jun-17 05:30N 67°08' E 013°59'0 0.0
2017-Jun-17 05:00N 67°08' E 013°59'0 0.0
2017-Jun-17 04:30N 67°08' E 013°59'0 0.0
2017-Jun-17 04:00N 67°08' E 013°59'0 0.0
2017-Jun-17 03:30N 67°08' E 013°59'0 0.0
2017-Jun-17 03:00N 67°08' E 013°59'0 0.0
2017-Jun-17 02:30N 67°08' E 013°59'0 0.0
2017-Jun-17 02:00N 67°08' E 013°59'0 0.0
2017-Jun-17 01:30N 67°08' E 013°59'0 0.0
2017-Jun-17 01:00N 67°08' E 013°59'0 0.0
2017-Jun-17 00:30N 67°08' E 013°59'0 0.0
2017-Jun-17 00:00N 67°08' E 013°59'0 0.0
2017-Jun-16 23:30N 67°08' E 013°59'0 0.0
2017-Jun-16 23:00N 67°08' E 013°59'0 0.0
2017-Jun-16 22:30N 67°08' E 013°59'0 0.0
2017-Jun-16 22:00N 67°08' E 013°59'0 0.0
2017-Jun-16 21:30N 67°08' E 013°59'0 0.0
2017-Jun-16 21:00N 67°08' E 013°59'0 0.0
2017-Jun-16 20:30N 67°08' E 013°59'0 0.0
2017-Jun-16 20:00N 67°08' E 013°59'1 1.0
2017-Jun-16 19:30N 67°08' E 013°59'3 5.6
2017-Jun-16 19:00N 67°05' E 014°03'1 1.3
2017-Jun-16 18:30N 67°05' E 014°02'3 6.8
2017-Jun-16 18:00N 67°08' E 013°59'3 6.8
2017-Jun-16 17:30N 67°05' E 014°02'  

Dump ship's entire track history